• Join FlightAware (Why Join?)
  • Login
  • US Flag 
11:25PM EDT


 

Airport Tracker/Info


-or-


 

Live Flight TrackerFlight Track Log ✈ N45NF ✈ 02-Apr-2014 ✈ KHOU - 1F0

Flight Track Log - Related Links

Times and Time Zones

All times are in EDT time to prevent confusion due to time zone crossing. See the N45NF flight status page for this flight to view local times or setup timezone preferences in your user account.

Time Position Orientation Groundspeed Altitude Reporting Facility
EDT Latitude Longitude Course Direction KTS MPH feet Rate Location/Type
08:31PM 29.6378 -95.2694 47° Northeast 155 178 800  Level Houston Center
08:32PM 29.6717 -95.2269 47° Northeast 274 315 3,600 2,520 Climbing Houston Center
08:33PM 29.7131 -95.2561 329° Northwest 292 336 5,000 1,440 Climbing Houston Center
08:33PM 29.7353 -95.2794 318° Northwest 297 342 5,100 2,400 Climbing Houston Center
08:34PM 29.7733 -95.3133 322° Northwest 286 329 7,500 3,780 Climbing Houston Center
08:34PM 29.8053 -95.3311 334° Northwest 284 327 9,000 3,000 Climbing Houston Center
08:35PM 29.8486 -95.3469 342° North 290 334 10,600 3,000 Climbing Houston Center
08:36PM 29.9469 -95.3897 339° North 311 358 14,400 3,240 Climbing Houston Center
08:37PM 30.0331 -95.4275 339° North 324 373 17,300 2,880 Climbing Houston Center
08:38PM 30.1211 -95.4667 339° North 333 383 20,400 2,940 Climbing Houston Center
08:39PM 30.2086 -95.5056 339° North 334 384 23,400 2,880 Climbing Houston Center
08:40PM 30.2967 -95.5436 340° North 335 386 26,400 2,700 Climbing Houston Center
08:41PM 30.3836 -95.5836 338° Northwest 335 386 29,000 1,740 Climbing Houston Center
08:42PM 30.4758 -95.6247 339° North 351 404 30,000 480 Climbing Houston Center
08:43PM 30.6047 -95.6881 337° Northwest 409 471 30,000  Level Houston Center
08:44PM 30.7117 -95.7461 335° Northwest 419 482 30,000  Level Houston Center
08:45PM 30.8208 -95.8050 335° Northwest 426 490 30,000  Level Houston Center
08:46PM 30.9308 -95.8636 335° Northwest 428 493 30,000  Level Houston Center
08:47PM 31.0411 -95.9236 335° Northwest 433 498 30,000  Level Houston Center
08:48PM 31.1519 -95.9792 337° Northwest 433 498 30,000  Level Houston Center
08:49PM 31.2936 -96.0308 343° North 437 503 30,000  Level Houston Center
08:50PM 31.3869 -96.0650 343° North 438 504 30,000  Level Fort Worth Center
08:51PM 31.5031 -96.1083 342° North 437 503 30,000  Level Fort Worth Center
08:52PM 31.6200 -96.1511 343° North 437 503 30,000  Level Fort Worth Center
08:53PM 31.7358 -96.1958 342° North 437 503 30,000  Level Fort Worth Center
08:54PM 31.8756 -96.2467 343° North 437 503 30,000  Level Fort Worth Center
08:55PM 31.9822 -96.2883 342° North 435 501 30,000  Level Fort Worth Center
08:56PM 32.0961 -96.3314 342° North 433 498 30,000  Level Fort Worth Center
08:57PM 32.2136 -96.3747 343° North 437 503 30,000  Level Fort Worth Center
08:58PM 32.3308 -96.4186 342° North 440 506 30,000  Level Fort Worth Center
08:59PM 32.4725 -96.4731 342° North 444 511 30,000  Level Fort Worth Center
09:00PM 32.5981 -96.5206 342° North 446 513 30,000  Level Fort Worth Center
09:01PM 32.7061 -96.5628 342° North 445 512 30,000  Level Fort Worth Center
09:03PM 32.8233 -96.6069 342° North 445 512 30,000 -420 Level Fort Worth Center
09:04PM 32.9392 -96.6517 342° North 444 511 29,200 -1,500 Descending Fort Worth Center
09:05PM 33.0736 -96.7025 342° North 431 496 27,000 -2,280 Descending Fort Worth Center
09:06PM 33.1839 -96.7583 337° Northwest 432 497 24,500 -1,500 Descending Fort Worth Center
09:07PM 33.2783 -96.8392 324° Northwest 427 491 24,000 -300 Descending Fort Worth Center
09:08PM 33.3750 -96.9200 325° Northwest 427 491 24,000  Level Fort Worth Center
09:09PM 33.4731 -96.9989 326° Northwest 427 491 24,000 -1,260 Level Fort Worth Center
09:10PM 33.6042 -97.0289 349° North 422 486 21,500 -3,060 Descending Fort Worth Center
09:11PM 33.7133 -97.0464 352° North 398 458 17,700 -4,020 Descending Fort Worth Center
09:12PM 33.8222 -97.0658 352° North 372 428 13,300 -4,080 Descending Fort Worth Center
09:13PM 33.9222 -97.0811 353° North 368 423 9,400 -3,780 Descending Fort Worth Center